createdAt,value
2023-01-10T00:00:19.389Z,6.32
2023-01-10T00:00:51.890Z,6.35
2023-01-10T00:01:24.383Z,6.33
2023-01-10T00:01:56.900Z,6.35
2023-01-10T00:02:29.374Z,6.32
2023-01-10T00:03:01.920Z,6.35
2023-01-10T00:03:34.350Z,6.33
2023-01-10T00:04:06.828Z,6.33
2023-01-10T00:04:39.604Z,6.33
2023-01-10T00:05:11.888Z,6.33
2023-01-10T00:05:44.395Z,6.35
2023-01-10T00:06:16.903Z,6.35
2023-01-10T00:06:49.416Z,6.35
2023-01-10T00:07:21.911Z,6.35
2023-01-10T00:07:54.411Z,6.35
2023-01-10T00:08:26.861Z,6.33
2023-01-10T00:08:59.427Z,6.35
2023-01-10T00:09:31.916Z,6.33
2023-01-10T00:10:04.392Z,6.33
2023-01-10T00:10:36.866Z,6.35
2023-01-10T00:11:09.342Z,6.35
2023-01-10T00:11:41.851Z,6.35
2023-01-10T00:12:14.308Z,6.35
2023-01-10T00:12:46.852Z,6.35
2023-01-10T00:13:19.364Z,6.35
2023-01-10T00:13:51.835Z,6.36
2023-01-10T00:14:24.331Z,6.35
2023-01-10T00:14:56.818Z,6.36
2023-01-10T00:15:29.439Z,6.35
2023-01-10T00:16:01.915Z,6.35
2023-01-10T00:16:34.460Z,6.33
2023-01-10T00:17:06.921Z,6.33
2023-01-10T00:17:39.401Z,6.35
2023-01-10T00:18:11.920Z,6.35
2023-01-10T00:18:44.392Z,6.35
2023-01-10T00:19:16.894Z,6.36
2023-01-10T00:19:49.344Z,6.38
2023-01-10T00:20:21.837Z,6.35
2023-01-10T00:20:54.352Z,6.36
2023-01-10T00:21:26.863Z,6.36
2023-01-10T00:21:59.367Z,6.38
2023-01-10T00:22:31.849Z,6.38
2023-01-10T00:23:04.296Z,6.38
2023-01-10T00:23:36.875Z,6.36
2023-01-10T00:24:09.355Z,6.36
2023-01-10T00:24:41.905Z,6.35
2023-01-10T00:25:14.460Z,6.36
2023-01-10T00:25:47.161Z,6.38
2023-01-10T00:26:19.532Z,6.36
2023-01-10T00:26:52.087Z,6.40
2023-01-10T00:27:24.543Z,6.40
2023-01-10T00:27:57.028Z,6.40
2023-01-10T00:28:29.750Z,6.41
2023-01-10T00:29:02.194Z,6.41
2023-01-10T00:29:34.700Z,6.40
2023-01-10T00:30:07.177Z,6.41
2023-01-10T00:30:39.750Z,6.40
2023-01-10T00:31:12.275Z,6.40
2023-01-10T00:31:44.709Z,6.40
2023-01-10T00:32:17.172Z,6.40
2023-01-10T00:32:49.692Z,6.41
2023-01-10T00:33:22.172Z,6.40
2023-01-10T00:33:54.651Z,6.38
2023-01-10T00:34:27.133Z,6.40
2023-01-10T00:34:59.674Z,6.38
2023-01-10T00:35:32.378Z,6.38
2023-01-10T00:36:04.888Z,6.36
2023-01-10T00:36:37.381Z,6.36
2023-01-10T00:37:09.879Z,6.33
2023-01-10T00:37:42.488Z,6.35
2023-01-10T00:38:14.961Z,6.33
2023-01-10T00:38:47.443Z,6.35
2023-01-10T00:39:19.965Z,6.35
2023-01-10T00:39:52.495Z,6.36
2023-01-10T00:40:24.989Z,6.35
2023-01-10T00:40:57.497Z,6.33
2023-01-10T00:41:30.001Z,6.33
2023-01-10T00:42:02.451Z,6.33
2023-01-10T00:42:34.956Z,6.33
2023-01-10T00:43:07.465Z,6.33
2023-01-10T00:43:39.991Z,6.32
2023-01-10T00:44:12.493Z,6.33
2023-01-10T00:44:44.973Z,6.33
2023-01-10T00:45:17.473Z,6.35
2023-01-10T00:45:49.973Z,6.36
2023-01-10T00:46:22.570Z,6.35
2023-01-10T00:46:55.028Z,6.35
2023-01-10T00:47:27.595Z,6.35
2023-01-10T00:48:00.099Z,6.33
2023-01-10T00:48:32.561Z,6.36
2023-01-10T00:49:05.049Z,6.35
2023-01-10T00:49:37.552Z,6.35
2023-01-10T00:50:10.068Z,6.35
2023-01-10T00:50:42.556Z,6.36
2023-01-10T00:51:15.036Z,6.35
2023-01-10T00:51:47.531Z,6.35
2023-01-10T00:52:20.040Z,6.33
2023-01-10T00:52:52.561Z,6.35
2023-01-10T00:53:25.030Z,6.35
2023-01-10T00:53:57.504Z,6.35
2023-01-10T00:54:30.084Z,6.33
2023-01-10T00:55:02.566Z,6.35
2023-01-10T00:55:35.127Z,6.35
2023-01-10T00:56:07.627Z,6.33
2023-01-10T00:56:40.111Z,6.30
2023-01-10T00:57:12.587Z,6.32
2023-01-10T00:57:45.159Z,6.29
2023-01-10T00:58:17.608Z,6.28
2023-01-10T00:58:50.110Z,6.28
2023-01-10T00:59:22.606Z,6.28
2023-01-10T00:59:55.091Z,6.25
2023-01-10T01:00:27.621Z,6.26
2023-01-10T01:01:00.174Z,6.22
2023-01-10T01:01:32.709Z,6.22
2023-01-10T01:02:05.152Z,6.21
2023-01-10T01:02:37.684Z,6.21
2023-01-10T01:03:10.163Z,6.19
2023-01-10T01:03:42.691Z,6.18
2023-01-10T01:04:15.147Z,6.19
2023-01-10T01:04:47.675Z,6.18
2023-01-10T01:05:20.182Z,6.14
2023-01-10T01:05:52.719Z,6.14
2023-01-10T01:06:25.205Z,6.16
2023-01-10T01:06:59.408Z,6.14
2023-01-10T01:07:30.219Z,6.11
2023-01-10T01:08:02.721Z,6.10
2023-01-10T01:08:35.216Z,6.11
2023-01-10T01:09:07.741Z,6.10
2023-01-10T01:09:40.303Z,6.09
2023-01-10T01:10:12.787Z,6.10
2023-01-10T01:10:45.367Z,6.07
2023-01-10T01:11:17.832Z,6.06
2023-01-10T01:11:50.332Z,6.06
2023-01-10T01:12:22.845Z,6.03
2023-01-10T01:12:55.339Z,6.03
2023-01-10T01:13:27.806Z,6.01
2023-01-10T01:14:00.329Z,6.01
2023-01-10T01:14:32.790Z,6.01
2023-01-10T01:15:05.298Z,5.96
2023-01-10T01:15:37.803Z,5.98
2023-01-10T01:16:10.423Z,5.96
2023-01-10T01:16:42.909Z,5.98
2023-01-10T01:17:15.403Z,5.96
2023-01-10T01:17:47.887Z,5.96
2023-01-10T01:18:20.372Z,5.95
2023-01-10T01:18:52.871Z,5.95
2023-01-10T01:19:25.334Z,5.92
2023-01-10T01:19:57.850Z,5.93
2023-01-10T01:20:30.340Z,5.91
2023-01-10T01:21:02.808Z,5.91
2023-01-10T01:21:35.288Z,5.91
2023-01-10T01:22:07.887Z,5.91
2023-01-10T01:22:40.447Z,5.91
2023-01-10T01:23:12.922Z,5.91
2023-01-10T01:23:45.416Z,5.89
2023-01-10T01:24:17.940Z,5.88
2023-01-10T01:24:50.446Z,5.88
2023-01-10T01:25:22.974Z,5.88
2023-01-10T01:25:55.499Z,5.86
2023-01-10T01:26:27.997Z,5.86
2023-01-10T01:27:00.493Z,5.86
2023-01-10T01:27:32.963Z,5.86
2023-01-10T01:28:05.517Z,5.85
2023-01-10T01:28:37.995Z,5.86
2023-01-10T01:29:10.501Z,5.83
2023-01-10T01:29:43.678Z,5.83
2023-01-10T01:30:15.499Z,5.83
2023-01-10T01:30:48.025Z,5.85
2023-01-10T01:31:20.441Z,5.83
2023-01-10T01:31:52.914Z,5.83
2023-01-10T01:32:25.497Z,5.83
2023-01-10T01:32:57.983Z,5.83
2023-01-10T01:33:30.474Z,5.86
2023-01-10T01:34:02.980Z,5.82
2023-01-10T01:34:35.551Z,5.82
2023-01-10T01:35:08.000Z,5.82
2023-01-10T01:35:40.500Z,5.81
2023-01-10T01:36:13.007Z,5.81
2023-01-10T01:36:45.504Z,5.81
2023-01-10T01:37:17.982Z,5.78
2023-01-10T01:37:50.495Z,5.81
2023-01-10T01:38:22.982Z,5.81
2023-01-10T01:38:55.448Z,5.78
2023-01-10T01:39:28.046Z,5.81
2023-01-10T01:40:00.532Z,5.81
2023-01-10T01:40:33.037Z,5.81
2023-01-10T01:41:05.533Z,5.83
2023-01-10T01:41:38.018Z,5.82
2023-01-10T01:42:10.534Z,5.81
2023-01-10T01:42:43.023Z,5.81
2023-01-10T01:43:15.508Z,5.81
2023-01-10T01:43:47.986Z,5.82
2023-01-10T01:44:20.489Z,5.78
2023-01-10T01:44:53.012Z,5.81
2023-01-10T01:45:25.513Z,5.78
2023-01-10T01:45:57.990Z,5.78
2023-01-10T01:46:30.500Z,5.77
2023-01-10T01:47:02.936Z,5.77
2023-01-10T01:47:35.468Z,5.78
2023-01-10T01:48:07.937Z,5.77
2023-01-10T01:48:40.448Z,5.77
2023-01-10T01:49:12.953Z,5.77
2023-01-10T01:49:45.436Z,5.77
2023-01-10T01:50:17.941Z,5.74
2023-01-10T01:50:50.408Z,5.75
2023-01-10T01:51:22.933Z,5.77
2023-01-10T01:51:55.443Z,5.75
2023-01-10T01:52:27.922Z,5.75
2023-01-10T01:53:00.382Z,5.74
2023-01-10T01:53:32.930Z,5.74
2023-01-10T01:54:05.444Z,5.71
2023-01-10T01:54:37.936Z,5.71
2023-01-10T01:55:10.523Z,5.71
2023-01-10T01:55:43.153Z,5.73
2023-01-10T01:56:15.608Z,5.71
2023-01-10T01:56:48.073Z,5.73
2023-01-10T01:57:20.603Z,5.73
2023-01-10T01:57:53.122Z,5.71
2023-01-10T01:58:25.636Z,5.71
2023-01-10T01:58:58.152Z,5.73
2023-01-10T01:59:30.663Z,5.71
2023-01-10T02:00:03.180Z,5.73
2023-01-10T02:00:35.685Z,5.73
2023-01-10T02:01:08.194Z,5.71
2023-01-10T02:01:40.894Z,5.70
2023-01-10T02:02:13.258Z,5.70
2023-01-10T02:02:54.119Z,5.71
2023-01-10T02:03:18.442Z,5.70
2023-01-10T02:03:51.036Z,5.70
2023-01-10T02:04:23.525Z,5.70
2023-01-10T02:04:56.023Z,5.73
2023-01-10T02:05:28.560Z,5.73
2023-01-10T02:06:01.097Z,5.73
2023-01-10T02:06:33.620Z,5.74
2023-01-10T02:07:06.132Z,5.74
2023-01-10T02:07:38.644Z,5.75
2023-01-10T02:08:11.121Z,5.75
2023-01-10T02:08:43.616Z,5.74
2023-01-10T02:09:16.102Z,5.74
2023-01-10T02:09:48.630Z,5.74
2023-01-10T02:10:21.104Z,5.74
2023-01-10T02:10:53.660Z,5.73
2023-01-10T02:11:26.226Z,5.74
2023-01-10T02:11:58.772Z,5.74
2023-01-10T02:12:31.254Z,5.75
2023-01-10T02:13:03.874Z,5.77
2023-01-10T02:13:36.377Z,5.77
2023-01-10T02:14:08.877Z,5.77
2023-01-10T02:14:41.390Z,5.77
2023-01-10T02:15:13.884Z,5.78
2023-01-10T02:15:46.453Z,5.77
2023-01-10T02:16:18.940Z,5.75
2023-01-10T02:16:51.415Z,5.77
2023-01-10T02:17:23.887Z,5.77
2023-01-10T02:17:56.374Z,5.75
2023-01-10T02:18:28.889Z,5.77
2023-01-10T02:19:01.378Z,5.75
2023-01-10T02:19:33.878Z,5.78
2023-01-10T02:20:06.468Z,5.78
2023-01-10T02:20:39.019Z,5.78
2023-01-10T02:21:11.515Z,5.78
2023-01-10T02:21:43.985Z,5.78
2023-01-10T02:22:16.478Z,5.78
2023-01-10T02:22:48.968Z,5.81
2023-01-10T02:23:21.495Z,5.78
2023-01-10T02:23:54.031Z,5.81
2023-01-10T02:24:26.561Z,5.78
2023-01-10T02:24:59.189Z,5.82
2023-01-10T02:25:31.677Z,5.81
2023-01-10T02:26:04.220Z,5.81
2023-01-10T02:26:36.706Z,5.81
2023-01-10T02:27:09.219Z,5.78
2023-01-10T02:27:41.717Z,5.81
2023-01-10T02:28:14.218Z,5.78
2023-01-10T02:28:46.710Z,5.77
2023-01-10T02:29:19.255Z,5.78
2023-01-10T02:29:51.754Z,5.78
2023-01-10T02:30:24.300Z,5.78
2023-01-10T02:30:56.805Z,5.78
2023-01-10T02:31:29.407Z,5.78
2023-01-10T02:32:01.878Z,5.78
2023-01-10T02:32:43.877Z,5.81
2023-01-10T02:33:06.928Z,5.78
2023-01-10T02:33:39.403Z,5.78
2023-01-10T02:34:11.910Z,5.78
2023-01-10T02:34:44.429Z,5.77
2023-01-10T02:35:16.947Z,5.75
2023-01-10T02:35:49.427Z,5.75
2023-01-10T02:36:21.961Z,5.77
2023-01-10T02:36:54.496Z,5.74
2023-01-10T02:37:27.004Z,5.74
2023-01-10T02:37:59.512Z,5.74
2023-01-10T02:38:32.020Z,5.75
2023-01-10T02:39:04.489Z,5.74
2023-01-10T02:39:37.073Z,5.74
2023-01-10T02:40:09.547Z,5.74
2023-01-10T02:40:42.078Z,5.75
2023-01-10T02:41:14.546Z,5.75
2023-01-10T02:41:47.032Z,5.75
2023-01-10T02:42:19.603Z,5.74
2023-01-10T02:42:52.157Z,5.74
2023-01-10T02:43:24.652Z,5.74
2023-01-10T02:43:57.111Z,5.74
2023-01-10T02:44:29.622Z,5.75
2023-01-10T02:45:02.121Z,5.74
2023-01-10T02:45:34.671Z,5.74
2023-01-10T02:46:07.184Z,5.73
2023-01-10T02:46:39.755Z,5.73
2023-01-10T02:47:12.240Z,5.73
2023-01-10T02:47:44.745Z,5.73
2023-01-10T02:48:17.228Z,5.73
2023-01-10T02:48:49.733Z,5.74
2023-01-10T02:49:22.193Z,5.71
2023-01-10T02:49:54.701Z,5.73
2023-01-10T02:50:27.180Z,5.73
2023-01-10T02:50:59.658Z,5.73
2023-01-10T02:51:32.145Z,5.74
2023-01-10T02:52:04.616Z,5.75
2023-01-10T02:52:37.149Z,5.73
2023-01-10T02:53:09.618Z,5.78
2023-01-10T02:53:42.123Z,5.77
2023-01-10T02:54:14.673Z,5.81
2023-01-10T02:54:47.183Z,5.81
2023-01-10T02:55:19.646Z,5.81
2023-01-10T02:55:52.200Z,5.81
2023-01-10T02:56:24.688Z,5.83
2023-01-10T02:56:57.171Z,5.81
2023-01-10T02:57:29.679Z,5.82
2023-01-10T02:58:02.186Z,5.82
2023-01-10T02:58:34.675Z,5.82
2023-01-10T02:59:07.227Z,5.81
2023-01-10T02:59:39.741Z,5.82
2023-01-10T03:00:12.223Z,5.78
2023-01-10T03:00:44.779Z,5.81
2023-01-10T03:01:17.322Z,5.81
2023-01-10T03:01:49.770Z,5.78
2023-01-10T03:02:22.212Z,5.78
2023-01-10T03:02:54.773Z,5.81
2023-01-10T03:03:27.286Z,5.82
2023-01-10T03:03:59.865Z,5.83
2023-01-10T03:04:32.376Z,5.81
2023-01-10T03:05:04.875Z,5.82
2023-01-10T03:05:37.340Z,5.82
2023-01-10T03:06:09.934Z,5.83
2023-01-10T03:06:42.473Z,5.81
2023-01-10T03:07:14.980Z,5.81
2023-01-10T03:07:47.482Z,5.77
2023-01-10T03:08:20.031Z,5.75
2023-01-10T03:08:52.479Z,5.74
2023-01-10T03:09:24.947Z,5.71
2023-01-10T03:09:57.439Z,5.71
2023-01-10T03:10:29.935Z,5.71
2023-01-10T03:11:02.416Z,5.70
2023-01-10T03:11:34.922Z,5.68
2023-01-10T03:12:07.471Z,5.68
2023-01-10T03:12:39.992Z,5.68
2023-01-10T03:13:12.563Z,5.67
2023-01-10T03:13:45.082Z,5.67
2023-01-10T03:14:17.581Z,5.68
2023-01-10T03:14:50.036Z,5.67
2023-01-10T03:15:22.490Z,5.66
2023-01-10T03:15:55.042Z,5.68
2023-01-10T03:16:27.596Z,5.68
2023-01-10T03:17:00.039Z,5.68
2023-01-10T03:17:32.485Z,5.68
2023-01-10T03:18:04.957Z,5.70
2023-01-10T03:18:37.469Z,5.68
2023-01-10T03:19:09.993Z,5.67
2023-01-10T03:19:42.616Z,5.67
2023-01-10T03:20:15.132Z,5.68
2023-01-10T03:20:47.656Z,5.64
2023-01-10T03:21:20.157Z,5.63
2023-01-10T03:21:52.636Z,5.59
2023-01-10T03:22:25.157Z,5.60
2023-01-10T03:22:57.645Z,5.60
2023-01-10T03:23:30.124Z,5.59
2023-01-10T03:24:02.589Z,5.59
2023-01-10T03:24:35.072Z,5.59
2023-01-10T03:25:07.580Z,5.55
2023-01-10T03:25:40.091Z,5.55
2023-01-10T03:26:12.577Z,5.53
2023-01-10T03:26:45.053Z,5.52
2023-01-10T03:27:17.565Z,5.50
2023-01-10T03:27:50.065Z,5.52
2023-01-10T03:28:22.552Z,5.50
2023-01-10T03:28:55.017Z,5.50
2023-01-10T03:29:27.508Z,5.49
2023-01-10T03:29:59.993Z,5.50
2023-01-10T03:30:32.574Z,5.50
2023-01-10T03:31:05.085Z,5.52
2023-01-10T03:31:37.584Z,5.50
2023-01-10T03:32:10.040Z,5.52
2023-01-10T03:32:42.531Z,5.50
2023-01-10T03:33:15.103Z,5.52
2023-01-10T03:33:47.618Z,5.50
2023-01-10T03:34:20.109Z,5.49
2023-01-10T03:34:52.570Z,5.49
2023-01-10T03:35:25.058Z,5.52
2023-01-10T03:35:57.540Z,5.52
2023-01-10T03:36:30.063Z,5.52
2023-01-10T03:37:02.609Z,5.50
2023-01-10T03:37:35.142Z,5.50
2023-01-10T03:38:07.633Z,5.49
2023-01-10T03:38:40.168Z,5.50
2023-01-10T03:39:12.771Z,5.50
2023-01-10T03:39:45.249Z,5.50
2023-01-10T03:40:17.727Z,5.53
2023-01-10T03:40:50.192Z,5.52
2023-01-10T03:41:22.680Z,5.52
2023-01-10T03:41:55.124Z,5.53
2023-01-10T03:42:27.607Z,5.53
2023-01-10T03:43:00.182Z,5.55
2023-01-10T03:43:32.694Z,5.56
2023-01-10T03:44:05.141Z,5.56
2023-01-10T03:44:37.609Z,5.57
2023-01-10T03:45:10.083Z,5.59
2023-01-10T03:45:42.661Z,5.59
2023-01-10T03:46:15.300Z,5.60
2023-01-10T03:46:47.831Z,5.60
2023-01-10T03:47:20.269Z,5.60
2023-01-10T03:47:52.767Z,5.57
2023-01-10T03:48:25.284Z,5.60
2023-01-10T03:48:57.757Z,5.56
2023-01-10T03:49:30.240Z,5.59
2023-01-10T03:50:02.796Z,5.55
2023-01-10T03:50:35.357Z,5.56
2023-01-10T03:51:07.889Z,5.53
2023-01-10T03:51:40.407Z,5.52
2023-01-10T03:52:12.893Z,5.50
2023-01-10T03:52:45.403Z,5.50
2023-01-10T03:53:17.894Z,5.50
2023-01-10T03:53:50.435Z,5.52
2023-01-10T03:54:23.024Z,5.50
2023-01-10T03:54:55.563Z,5.49
2023-01-10T03:55:28.056Z,5.50
2023-01-10T03:56:00.533Z,5.50
2023-01-10T03:56:32.981Z,5.50
2023-01-10T03:57:05.477Z,5.52
2023-01-10T03:57:37.945Z,5.53
2023-01-10T03:58:10.453Z,5.53
2023-01-10T03:58:42.978Z,5.50
2023-01-10T03:59:15.479Z,5.55
2023-01-10T03:59:48.097Z,5.50
2023-01-10T04:00:20.584Z,5.50
2023-01-10T04:00:53.169Z,5.52
2023-01-10T04:01:25.698Z,5.50
2023-01-10T04:01:58.189Z,5.49
2023-01-10T04:02:30.589Z,5.50
2023-01-10T04:03:03.141Z,5.50
2023-01-10T04:03:35.648Z,5.50
2023-01-10T04:04:08.216Z,5.50
2023-01-10T04:04:40.717Z,5.49
2023-01-10T04:05:13.228Z,5.48
2023-01-10T04:05:45.732Z,5.46
2023-01-10T04:06:18.254Z,5.50
2023-01-10T04:06:50.790Z,5.50
2023-01-10T04:07:23.279Z,5.50
2023-01-10T04:07:55.812Z,5.49
2023-01-10T04:08:28.353Z,5.50
2023-01-10T04:09:00.848Z,5.50
2023-01-10T04:09:33.325Z,5.46
2023-01-10T04:10:05.877Z,5.49
2023-01-10T04:10:38.346Z,5.48
2023-01-10T04:11:10.870Z,5.48
2023-01-10T04:11:43.410Z,5.46
2023-01-10T04:12:15.918Z,5.48
2023-01-10T04:12:48.435Z,5.48
2023-01-10T04:13:20.937Z,5.48
2023-01-10T04:13:53.417Z,5.49
2023-01-10T04:14:25.901Z,5.49
2023-01-10T04:14:58.446Z,5.49
2023-01-10T04:15:30.964Z,5.49
2023-01-10T04:16:03.524Z,5.50
2023-01-10T04:16:36.075Z,5.50
2023-01-10T04:17:08.477Z,5.50
2023-01-10T04:17:40.945Z,5.52
2023-01-10T04:18:13.478Z,5.50
2023-01-10T04:18:46.088Z,5.49
2023-01-10T04:19:18.606Z,5.49
2023-01-10T04:19:51.115Z,5.50
2023-01-10T04:20:23.612Z,5.49
2023-01-10T04:20:56.108Z,5.50
2023-01-10T04:21:28.589Z,5.50
2023-01-10T04:22:01.054Z,5.52
2023-01-10T04:22:33.538Z,5.50
2023-01-10T04:23:06.038Z,5.52
2023-01-10T04:23:38.568Z,5.50
2023-01-10T04:24:11.143Z,5.49
2023-01-10T04:24:43.603Z,5.50
2023-01-10T04:25:16.170Z,5.49
2023-01-10T04:25:48.652Z,5.49
2023-01-10T04:26:21.159Z,5.48
2023-01-10T04:26:53.644Z,5.48
2023-01-10T04:27:26.134Z,5.46
2023-01-10T04:27:58.647Z,5.45
2023-01-10T04:28:31.122Z,5.43
2023-01-10T04:29:03.596Z,5.43
2023-01-10T04:29:36.116Z,5.43
2023-01-10T04:30:08.599Z,5.41
2023-01-10T04:30:41.120Z,5.41
2023-01-10T04:31:13.679Z,5.43
2023-01-10T04:31:46.207Z,5.43
2023-01-10T04:32:18.643Z,5.45
2023-01-10T04:32:51.126Z,5.43
2023-01-10T04:33:23.647Z,5.43
2023-01-10T04:33:56.225Z,5.41
2023-01-10T04:34:28.742Z,5.41
2023-01-10T04:35:01.226Z,5.43
2023-01-10T04:35:33.710Z,5.43
2023-01-10T04:36:06.221Z,5.41
2023-01-10T04:36:38.716Z,5.41
2023-01-10T04:37:11.223Z,5.41
2023-01-10T04:37:43.802Z,5.37
2023-01-10T04:38:16.312Z,5.38
2023-01-10T04:38:48.941Z,5.35
2023-01-10T04:39:21.447Z,5.37
2023-01-10T04:39:53.907Z,5.38
2023-01-10T04:40:26.365Z,5.37
2023-01-10T04:40:58.880Z,5.37
2023-01-10T04:41:31.359Z,5.37
2023-01-10T04:42:03.936Z,5.37
2023-01-10T04:42:36.424Z,5.38
2023-01-10T04:43:08.981Z,5.38
2023-01-10T04:43:41.481Z,5.40
2023-01-10T04:44:14.122Z,5.38
2023-01-10T04:44:46.585Z,5.40
2023-01-10T04:45:19.034Z,5.41
2023-01-10T04:45:51.623Z,5.38
2023-01-10T04:46:24.089Z,5.37
2023-01-10T04:46:56.616Z,5.37
2023-01-10T04:47:29.113Z,5.38
2023-01-10T04:48:01.600Z,5.38
2023-01-10T04:48:34.189Z,5.40
2023-01-10T04:49:06.723Z,5.41
2023-01-10T04:49:39.184Z,5.43
2023-01-10T04:50:11.673Z,5.40
2023-01-10T04:50:44.180Z,5.43
2023-01-10T04:51:16.701Z,5.41
2023-01-10T04:51:49.224Z,5.45
2023-01-10T04:52:21.738Z,5.45
2023-01-10T04:52:54.222Z,5.45
2023-01-10T04:53:26.718Z,5.43
2023-01-10T04:53:59.333Z,5.43
2023-01-10T04:54:31.868Z,5.45
2023-01-10T04:55:04.379Z,5.46
2023-01-10T04:55:36.930Z,5.46
2023-01-10T04:56:09.411Z,5.48
2023-01-10T04:56:41.893Z,5.45
2023-01-10T04:57:14.372Z,5.46
2023-01-10T04:57:46.872Z,5.48
2023-01-10T04:58:19.336Z,5.49
2023-01-10T04:58:53.880Z,5.49
2023-01-10T04:59:24.404Z,5.49
2023-01-10T04:59:56.927Z,5.49
2023-01-10T05:00:29.492Z,5.50
2023-01-10T05:01:02.049Z,5.50
2023-01-10T05:01:34.607Z,5.50
2023-01-10T05:02:07.257Z,5.53
2023-01-10T05:02:39.769Z,5.52
2023-01-10T05:03:12.176Z,5.55
2023-01-10T05:03:44.730Z,5.53
2023-01-10T05:04:18.443Z,5.55
2023-01-10T05:04:49.758Z,5.53
2023-01-10T05:05:22.263Z,5.55
2023-01-10T05:05:54.762Z,5.56
2023-01-10T05:06:27.272Z,5.55
2023-01-10T05:06:59.812Z,5.55
2023-01-10T05:07:32.378Z,5.56
2023-01-10T05:08:04.889Z,5.53
2023-01-10T05:08:37.438Z,5.53
2023-01-10T05:09:10.043Z,5.53
2023-01-10T05:09:42.573Z,5.53
2023-01-10T05:10:15.082Z,5.53
2023-01-10T05:10:47.832Z,5.52
2023-01-10T05:11:20.336Z,5.53
2023-01-10T05:11:52.852Z,5.52
2023-01-10T05:12:25.382Z,5.52
2023-01-10T05:13:05.965Z,5.50
2023-01-10T05:13:38.449Z,5.49
2023-01-10T05:14:10.922Z,5.49
2023-01-10T05:14:43.404Z,5.49
2023-01-10T05:15:15.895Z,5.52
2023-01-10T05:15:48.376Z,5.50
2023-01-10T05:16:20.973Z,5.53
2023-01-10T05:16:53.404Z,5.52
2023-01-10T05:17:25.922Z,5.50
2023-01-10T05:17:59.415Z,5.52
2023-01-10T05:18:31.921Z,5.53
2023-01-10T05:19:04.422Z,5.48
2023-01-10T05:19:36.948Z,5.50
2023-01-10T05:20:09.452Z,5.52
2023-01-10T05:20:41.963Z,5.50
2023-01-10T05:21:14.471Z,5.50
2023-01-10T05:21:46.992Z,5.50
2023-01-10T05:22:19.482Z,5.52
2023-01-10T05:22:51.983Z,5.53
2023-01-10T05:23:24.469Z,5.56
2023-01-10T05:23:56.940Z,5.56
2023-01-10T05:24:29.457Z,5.56
2023-01-10T05:25:01.952Z,5.56
2023-01-10T05:25:34.408Z,5.56
2023-01-10T05:26:06.898Z,5.56
2023-01-10T05:26:39.485Z,5.56
2023-01-10T05:27:12.007Z,5.56
2023-01-10T05:27:44.586Z,5.56
2023-01-10T05:28:17.138Z,5.57
2023-01-10T05:28:49.627Z,5.57
2023-01-10T05:29:22.114Z,5.56
2023-01-10T05:29:54.689Z,5.56
2023-01-10T05:30:27.157Z,5.59
2023-01-10T05:30:59.664Z,5.57
2023-01-10T05:31:32.228Z,5.59
2023-01-10T05:32:04.657Z,5.60
2023-01-10T05:32:37.140Z,5.63
2023-01-10T05:33:09.599Z,5.63
2023-01-10T05:33:42.156Z,5.64
2023-01-10T05:34:14.680Z,5.59
2023-01-10T05:34:47.161Z,5.63
2023-01-10T05:35:19.633Z,5.63
2023-01-10T05:35:52.124Z,5.64
2023-01-10T05:36:24.625Z,5.63
2023-01-10T05:36:57.152Z,5.63
2023-01-10T05:37:29.634Z,5.64
2023-01-10T05:38:02.165Z,5.64
2023-01-10T05:38:34.774Z,5.63
2023-01-10T05:39:07.290Z,5.64
2023-01-10T05:39:40.552Z,5.64
2023-01-10T05:40:13.050Z,5.66
2023-01-10T05:40:45.686Z,5.66
2023-01-10T05:41:18.183Z,5.67
2023-01-10T05:41:50.679Z,5.67
2023-01-10T05:42:23.153Z,5.66
2023-01-10T05:42:55.651Z,5.64
2023-01-10T05:43:28.141Z,5.66
2023-01-10T05:44:00.638Z,5.66
2023-01-10T05:44:33.137Z,5.67
2023-01-10T05:45:05.641Z,5.68
2023-01-10T05:45:38.223Z,5.67
2023-01-10T05:46:10.711Z,5.66
2023-01-10T05:46:43.145Z,5.66
2023-01-10T05:47:15.658Z,5.67
2023-01-10T05:47:48.118Z,5.66
2023-01-10T05:48:20.590Z,5.66
2023-01-10T05:48:53.089Z,5.63
2023-01-10T05:49:25.691Z,5.60
2023-01-10T05:49:58.185Z,5.63
2023-01-10T05:50:30.665Z,5.60
2023-01-10T05:51:03.192Z,5.64
2023-01-10T05:51:35.655Z,5.60
2023-01-10T05:52:08.220Z,5.60
2023-01-10T05:52:40.692Z,5.57
2023-01-10T05:53:13.250Z,5.57
2023-01-10T05:53:45.735Z,5.57
2023-01-10T05:54:18.222Z,5.57
2023-01-10T05:54:50.729Z,5.57
2023-01-10T05:55:23.197Z,5.57
2023-01-10T05:55:55.738Z,5.55
2023-01-10T05:56:28.246Z,5.55
2023-01-10T05:57:00.775Z,5.50
2023-01-10T05:57:33.265Z,5.50
2023-01-10T05:58:05.796Z,5.49
2023-01-10T05:58:38.271Z,5.49
2023-01-10T05:59:26.980Z,5.50
2023-01-10T05:59:43.262Z,5.49
2023-01-10T06:00:15.785Z,5.48
2023-01-10T06:00:48.317Z,5.48
2023-01-10T06:01:20.878Z,5.49
2023-01-10T06:01:53.364Z,5.49
2023-01-10T06:02:25.890Z,5.49
2023-01-10T06:02:58.482Z,5.50
2023-01-10T06:03:30.919Z,5.50
2023-01-10T06:04:03.392Z,5.50
2023-01-10T06:04:35.939Z,5.52
2023-01-10T06:05:08.446Z,5.53
2023-01-10T06:05:40.972Z,5.50
2023-01-10T06:06:13.488Z,5.52
2023-01-10T06:06:46.028Z,5.52
2023-01-10T06:07:18.624Z,5.50
2023-01-10T06:07:51.159Z,5.50
2023-01-10T06:08:23.798Z,5.50
2023-01-10T06:08:56.273Z,5.48
2023-01-10T06:09:28.828Z,5.49
2023-01-10T06:10:01.377Z,5.48
2023-01-10T06:10:33.904Z,5.49
2023-01-10T06:11:06.409Z,5.49
2023-01-10T06:11:38.927Z,5.49
2023-01-10T06:12:11.402Z,5.52
2023-01-10T06:12:43.898Z,5.53
2023-01-10T06:13:16.424Z,5.52
2023-01-10T06:13:48.918Z,5.50
2023-01-10T06:14:21.428Z,5.49
2023-01-10T06:14:53.910Z,5.49
2023-01-10T06:15:26.421Z,5.49
2023-01-10T06:15:58.958Z,5.48
2023-01-10T06:16:31.565Z,5.48
2023-01-10T06:17:04.077Z,5.48
2023-01-10T06:17:36.578Z,5.49
2023-01-10T06:18:10.534Z,5.49
2023-01-10T06:18:41.624Z,5.50
2023-01-10T06:19:14.142Z,5.50
2023-01-10T06:19:46.752Z,5.52
2023-01-10T06:20:19.263Z,5.50
2023-01-10T06:20:51.837Z,5.50
2023-01-10T06:21:24.304Z,5.52
2023-01-10T06:21:56.852Z,5.50
2023-01-10T06:22:29.396Z,5.52
2023-01-10T06:23:01.881Z,5.49
2023-01-10T06:23:34.402Z,5.50
2023-01-10T06:24:06.973Z,5.49
2023-01-10T06:24:39.519Z,5.48
2023-01-10T06:25:12.016Z,5.52
2023-01-10T06:25:44.499Z,5.50
2023-01-10T06:26:16.991Z,5.52
2023-01-10T06:26:49.498Z,5.52
2023-01-10T06:27:22.043Z,5.52
2023-01-10T06:27:54.547Z,5.50
2023-01-10T06:28:27.111Z,5.50
2023-01-10T06:28:59.661Z,5.49
2023-01-10T06:29:32.205Z,5.49
2023-01-10T06:30:04.698Z,5.49
2023-01-10T06:30:37.199Z,5.48
2023-01-10T06:31:09.711Z,5.48
2023-01-10T06:31:42.969Z,5.46
2023-01-10T06:32:15.435Z,5.45
2023-01-10T06:32:47.958Z,5.46
2023-01-10T06:33:20.456Z,5.46
2023-01-10T06:33:52.975Z,5.46
2023-01-10T06:34:25.480Z,5.45
2023-01-10T06:34:57.961Z,5.46
2023-01-10T06:35:30.520Z,5.46
2023-01-10T06:36:02.960Z,5.45
2023-01-10T06:36:35.439Z,5.45
2023-01-10T06:37:07.972Z,5.45
2023-01-10T06:37:40.548Z,5.48
2023-01-10T06:38:13.136Z,5.45
2023-01-10T06:38:45.618Z,5.46
2023-01-10T06:39:18.123Z,5.43
2023-01-10T06:39:50.613Z,5.45
2023-01-10T06:40:23.083Z,5.43
2023-01-10T06:40:55.570Z,5.45
2023-01-10T06:41:28.085Z,5.40
2023-01-10T06:42:00.573Z,5.40
2023-01-10T06:42:33.123Z,5.41
2023-01-10T06:43:05.664Z,5.45
2023-01-10T06:43:38.172Z,5.41
2023-01-10T06:44:10.709Z,5.43
2023-01-10T06:44:43.276Z,5.41
2023-01-10T06:45:15.800Z,5.41
2023-01-10T06:45:48.337Z,5.40
2023-01-10T06:46:20.857Z,5.38
2023-01-10T06:46:53.308Z,5.35
2023-01-10T06:47:25.825Z,5.35
2023-01-10T06:47:58.340Z,5.35
2023-01-10T06:48:30.851Z,5.37
2023-01-10T06:49:03.388Z,5.35
2023-01-10T06:49:35.940Z,5.37
2023-01-10T06:50:08.459Z,5.38
2023-01-10T06:50:40.998Z,5.37
2023-01-10T06:51:13.586Z,5.38
2023-01-10T06:51:46.052Z,5.38
2023-01-10T06:52:18.598Z,5.34
2023-01-10T06:52:51.078Z,5.32
2023-01-10T06:53:23.588Z,5.32
2023-01-10T06:53:56.106Z,5.32
2023-01-10T06:54:28.718Z,5.30
2023-01-10T06:55:01.226Z,5.31
2023-01-10T06:55:33.717Z,5.32
2023-01-10T06:56:06.212Z,5.31
2023-01-10T06:56:38.739Z,5.31
2023-01-10T06:57:11.321Z,5.32
2023-01-10T06:57:43.902Z,5.34
2023-01-10T06:58:16.397Z,5.34
2023-01-10T06:58:48.909Z,5.34
2023-01-10T06:59:21.395Z,5.34
2023-01-10T06:59:53.898Z,5.35
2023-01-10T07:00:26.394Z,5.32
2023-01-10T07:00:58.977Z,5.32
2023-01-10T07:01:31.381Z,5.34
2023-01-10T07:02:03.940Z,5.32
2023-01-10T07:02:36.284Z,5.32
2023-01-10T07:03:08.751Z,5.31
2023-01-10T07:03:41.252Z,5.32
2023-01-10T07:04:13.746Z,5.31
2023-01-10T07:04:46.238Z,5.32
2023-01-10T07:05:18.721Z,5.31
2023-01-10T07:05:51.207Z,5.32
2023-01-10T07:06:23.675Z,5.31
2023-01-10T07:06:56.162Z,5.31
2023-01-10T07:07:28.628Z,5.31
2023-01-10T07:08:01.193Z,5.31
2023-01-10T07:08:33.874Z,5.28
2023-01-10T07:09:06.389Z,5.30
2023-01-10T07:09:38.905Z,5.30
2023-01-10T07:10:11.408Z,5.30
2023-01-10T07:10:43.910Z,5.30
2023-01-10T07:11:16.389Z,5.31
2023-01-10T07:11:48.886Z,5.31
2023-01-10T07:12:21.393Z,5.31
2023-01-10T07:12:53.886Z,5.28